createdAt,value
2019-03-03T00:00:46.375Z,29.43
2019-03-03T00:01:46.328Z,29.52
2019-03-03T00:02:46.283Z,29.43
2019-03-03T00:03:46.233Z,29.52
2019-03-03T00:04:46.185Z,29.62
2019-03-03T00:05:46.137Z,29.52
2019-03-03T00:06:46.092Z,29.52
2019-03-03T00:07:46.044Z,29.62
2019-03-03T00:08:45.998Z,29.52
2019-03-03T00:09:46.049Z,29.52
2019-03-03T00:10:45.902Z,29.62
2019-03-03T00:11:45.855Z,29.43
2019-03-03T00:12:45.808Z,29.52
2019-03-03T00:13:45.759Z,29.62
2019-03-03T00:14:45.711Z,29.52
2019-03-03T00:15:45.665Z,29.62
2019-03-03T00:16:45.616Z,29.43
2019-03-03T00:17:45.569Z,29.43
2019-03-03T00:18:45.533Z,29.43
2019-03-03T00:19:45.476Z,29.52
2019-03-03T00:20:45.427Z,29.43
2019-03-03T00:21:45.381Z,29.43
2019-03-03T00:22:45.335Z,29.52
2019-03-03T00:23:45.608Z,29.52
2019-03-03T00:24:45.239Z,29.43
2019-03-03T00:25:45.192Z,29.52
2019-03-03T00:26:45.145Z,29.33
2019-03-03T00:27:45.098Z,29.43
2019-03-03T00:28:45.049Z,29.52
2019-03-03T00:29:45.002Z,29.43
2019-03-03T00:30:45.055Z,29.52
2019-03-03T00:31:44.908Z,29.52
2019-03-03T00:32:44.861Z,29.52
2019-03-03T00:33:44.813Z,29.52
2019-03-03T00:34:44.766Z,29.52
2019-03-03T00:35:44.725Z,29.43
2019-03-03T00:36:44.670Z,29.62
2019-03-03T00:37:44.624Z,29.52
2019-03-03T00:38:44.575Z,29.62
2019-03-03T00:39:44.529Z,29.52
2019-03-03T00:40:44.480Z,29.52
2019-03-03T00:41:44.436Z,29.43
2019-03-03T00:42:44.387Z,29.52
2019-03-03T00:43:44.340Z,29.43
2019-03-03T00:44:45.969Z,29.43
2019-03-03T00:45:44.246Z,29.33
2019-03-03T00:46:44.198Z,29.43
2019-03-03T00:47:44.151Z,29.52
2019-03-03T00:48:44.103Z,29.43
2019-03-03T00:49:44.055Z,29.52
2019-03-03T00:50:44.008Z,29.33
2019-03-03T00:51:43.961Z,29.52
2019-03-03T00:52:43.922Z,29.62
2019-03-03T00:53:43.868Z,29.33
2019-03-03T00:54:43.820Z,29.43
2019-03-03T00:55:43.772Z,29.33
2019-03-03T00:56:43.723Z,29.62
2019-03-03T00:57:43.677Z,29.43
2019-03-03T00:58:43.630Z,29.43
2019-03-03T00:59:43.582Z,29.52
2019-03-03T01:00:43.535Z,29.62
2019-03-03T01:01:43.487Z,29.33
2019-03-03T01:02:43.443Z,29.52
2019-03-03T01:03:43.393Z,29.52
2019-03-03T01:04:43.345Z,29.43
2019-03-03T01:05:43.298Z,29.43
2019-03-03T01:06:43.251Z,29.52
2019-03-03T01:07:43.204Z,29.62
2019-03-03T01:08:43.157Z,29.52
2019-03-03T01:09:43.115Z,29.43
2019-03-03T01:10:43.062Z,29.52
2019-03-03T01:11:43.015Z,29.52
2019-03-03T01:12:42.969Z,29.52
2019-03-03T01:13:42.920Z,29.52
2019-03-03T01:14:42.873Z,29.33
2019-03-03T01:15:42.825Z,29.43
2019-03-03T01:16:42.777Z,29.62
2019-03-03T01:17:42.732Z,29.43
2019-03-03T01:18:42.683Z,29.52
2019-03-03T01:19:42.637Z,29.52
2019-03-03T01:20:42.590Z,29.52
2019-03-03T01:21:42.545Z,29.43
2019-03-03T01:22:42.494Z,29.52
2019-03-03T01:23:42.452Z,29.43
2019-03-03T01:24:42.402Z,29.43
2019-03-03T01:25:42.352Z,29.52
2019-03-03T01:26:42.305Z,29.43
2019-03-03T01:27:42.258Z,29.43
2019-03-03T01:28:42.209Z,29.62
2019-03-03T01:29:42.164Z,29.43
2019-03-03T01:30:42.115Z,29.43
2019-03-03T01:31:42.068Z,29.33
2019-03-03T01:32:42.021Z,29.43
2019-03-03T01:33:41.974Z,29.33
2019-03-03T01:34:41.934Z,29.33
2019-03-03T01:35:41.929Z,29.33
2019-03-03T01:36:41.830Z,29.33
2019-03-03T01:37:41.784Z,29.52
2019-03-03T01:38:41.737Z,29.33
2019-03-03T01:39:41.689Z,29.33
2019-03-03T01:40:41.642Z,29.33
2019-03-03T01:41:41.595Z,29.43
2019-03-03T01:42:41.548Z,29.52
2019-03-03T01:43:41.501Z,29.33
2019-03-03T01:44:41.452Z,29.43
2019-03-03T01:45:41.723Z,29.33
2019-03-03T01:46:41.359Z,29.33
2019-03-03T01:47:41.311Z,29.33
2019-03-03T01:48:41.263Z,29.24
2019-03-03T01:49:41.216Z,29.33
2019-03-03T01:50:41.169Z,29.43
2019-03-03T01:51:41.122Z,29.52
2019-03-03T01:52:41.175Z,29.52
2019-03-03T01:53:41.031Z,29.43
2019-03-03T01:54:40.980Z,29.33
2019-03-03T01:55:40.932Z,29.33
2019-03-03T01:56:40.885Z,29.43
2019-03-03T01:57:40.840Z,29.52
2019-03-03T01:58:40.791Z,29.52
2019-03-03T01:59:40.745Z,29.52
2019-03-03T02:00:40.696Z,29.52
2019-03-03T02:01:40.649Z,29.52
2019-03-03T02:02:40.603Z,29.33
2019-03-03T02:03:40.555Z,29.33
2019-03-03T02:04:40.507Z,29.33
2019-03-03T02:05:40.460Z,29.52
2019-03-03T02:06:40.412Z,29.33
2019-03-03T02:07:40.365Z,29.43
2019-03-03T02:08:40.316Z,29.52
2019-03-03T02:09:40.270Z,29.33
2019-03-03T02:10:40.223Z,29.52
2019-03-03T02:11:40.177Z,29.33
2019-03-03T02:12:40.130Z,29.52
2019-03-03T02:13:40.081Z,29.62
2019-03-03T02:14:40.034Z,29.62
2019-03-03T02:15:39.989Z,29.52
2019-03-03T02:16:39.938Z,29.52
2019-03-03T02:17:39.994Z,29.52
2019-03-03T02:18:39.847Z,29.52
2019-03-03T02:19:39.796Z,29.52
2019-03-03T02:20:39.749Z,29.43
2019-03-03T02:21:39.702Z,29.43
2019-03-03T02:22:39.655Z,29.43
2019-03-03T02:23:39.608Z,29.43
2019-03-03T02:24:39.560Z,29.52
2019-03-03T02:25:39.513Z,29.43
2019-03-03T02:26:39.466Z,29.52
2019-03-03T02:27:39.419Z,29.33
2019-03-03T02:28:39.371Z,29.52
2019-03-03T02:29:39.323Z,29.62
2019-03-03T02:30:39.281Z,29.43
2019-03-03T02:31:39.231Z,29.52
2019-03-03T02:32:39.181Z,29.52
2019-03-03T02:33:39.137Z,29.52
2019-03-03T02:34:39.086Z,29.43
2019-03-03T02:35:39.041Z,29.62
2019-03-03T02:36:38.993Z,29.62
2019-03-03T02:37:38.949Z,29.52
2019-03-03T02:38:38.898Z,29.52
2019-03-03T02:39:38.852Z,29.52
2019-03-03T02:40:38.803Z,29.43
2019-03-03T02:41:38.757Z,29.43
2019-03-03T02:42:38.722Z,29.62
2019-03-03T02:43:38.665Z,29.52
2019-03-03T02:44:38.614Z,29.43
2019-03-03T02:45:38.567Z,29.52
2019-03-03T02:46:38.523Z,29.72
2019-03-03T02:47:38.473Z,29.52
2019-03-03T02:48:38.424Z,29.62
2019-03-03T02:49:38.377Z,29.52
2019-03-03T02:50:38.330Z,29.62
2019-03-03T02:51:38.283Z,29.62
2019-03-03T02:52:38.235Z,29.52
2019-03-03T02:53:38.188Z,29.62
2019-03-03T02:54:38.141Z,29.72
2019-03-03T02:55:38.094Z,29.43
2019-03-03T02:56:38.046Z,29.52
2019-03-03T02:57:38.049Z,29.72
2019-03-03T02:58:38.002Z,29.52
2019-03-03T02:59:37.906Z,29.62
2019-03-03T03:00:37.864Z,29.43
2019-03-03T03:01:37.810Z,29.52
2019-03-03T03:02:37.764Z,29.52
2019-03-03T03:03:37.718Z,29.43
2019-03-03T03:04:37.667Z,29.62
2019-03-03T03:05:37.622Z,29.52
2019-03-03T03:06:37.573Z,29.62
2019-03-03T03:07:37.528Z,29.72
2019-03-03T03:08:37.478Z,29.62
2019-03-03T03:09:37.431Z,29.62
2019-03-03T03:10:37.401Z,29.43
2019-03-03T03:11:37.339Z,29.72
2019-03-03T03:12:37.292Z,29.72
2019-03-03T03:13:37.247Z,29.52
2019-03-03T03:14:37.197Z,29.52
2019-03-03T03:15:37.153Z,29.52
2019-03-03T03:16:37.099Z,29.72
2019-03-03T03:17:37.053Z,29.81
2019-03-03T03:18:37.006Z,29.72
2019-03-03T03:19:36.961Z,29.62
2019-03-03T03:20:36.911Z,29.43
2019-03-03T03:21:36.869Z,29.72
2019-03-03T03:22:36.819Z,29.72
2019-03-03T03:23:36.770Z,29.72
2019-03-03T03:24:36.722Z,29.72
2019-03-03T03:25:36.678Z,29.52
2019-03-03T03:26:36.629Z,29.72
2019-03-03T03:27:36.581Z,29.81
2019-03-03T03:28:36.531Z,29.72
2019-03-03T03:29:36.486Z,29.72
2019-03-03T03:30:36.438Z,29.62
2019-03-03T03:31:36.391Z,29.72
2019-03-03T03:32:36.349Z,29.72
2019-03-03T03:33:36.296Z,29.72
2019-03-03T03:34:36.249Z,29.72
2019-03-03T03:35:36.202Z,29.81
2019-03-03T03:36:36.976Z,29.81
2019-03-03T03:37:36.106Z,29.81
2019-03-03T03:38:36.065Z,29.43
2019-03-03T03:39:36.013Z,29.72
2019-03-03T03:40:35.964Z,29.81
2019-03-03T03:41:35.917Z,29.81
2019-03-03T03:42:35.869Z,29.62
2019-03-03T03:43:35.823Z,29.72
2019-03-03T03:44:35.775Z,29.43
2019-03-03T03:45:35.727Z,29.81
2019-03-03T03:46:35.689Z,29.62
2019-03-03T03:47:35.635Z,29.72
2019-03-03T03:48:35.586Z,29.72
2019-03-03T03:49:35.540Z,29.72
2019-03-03T03:50:35.491Z,29.72
2019-03-03T03:51:35.444Z,29.72
2019-03-03T03:52:35.397Z,29.81
2019-03-03T03:53:35.352Z,29.72
2019-03-03T03:54:35.303Z,29.72
2019-03-03T03:55:35.255Z,29.81
2019-03-03T03:56:35.206Z,29.72
2019-03-03T03:57:35.164Z,29.72
2019-03-03T03:58:35.113Z,29.72
2019-03-03T03:59:35.066Z,29.62
2019-03-03T04:00:35.017Z,29.72
2019-03-03T04:01:34.971Z,29.62
2019-03-03T04:02:34.933Z,29.81
2019-03-03T04:03:34.876Z,29.81
2019-03-03T04:04:34.827Z,29.43
2019-03-03T04:05:34.781Z,29.81
2019-03-03T04:06:34.734Z,29.81
2019-03-03T04:07:34.687Z,29.81
2019-03-03T04:08:34.639Z,29.91
2019-03-03T04:09:34.591Z,29.81
2019-03-03T04:10:34.550Z,29.91
2019-03-03T04:11:34.511Z,29.52
2019-03-03T04:12:34.451Z,29.81
2019-03-03T04:13:34.402Z,29.72
2019-03-03T04:14:34.356Z,29.62
2019-03-03T04:15:34.313Z,29.72
2019-03-03T04:16:34.260Z,29.52
2019-03-03T04:17:34.213Z,29.52
2019-03-03T04:18:34.167Z,29.52
2019-03-03T04:19:34.118Z,29.43
2019-03-03T04:20:34.079Z,29.72
2019-03-03T04:21:34.027Z,29.52
2019-03-03T04:22:33.977Z,29.62
2019-03-03T04:23:33.930Z,29.43
2019-03-03T04:24:33.885Z,29.52
2019-03-03T04:25:33.833Z,29.62
2019-03-03T04:26:33.787Z,29.43
2019-03-03T04:27:33.740Z,29.52
2019-03-03T04:28:33.692Z,29.52
2019-03-03T04:29:33.645Z,29.91
2019-03-03T04:30:33.598Z,29.91
2019-03-03T04:31:33.601Z,29.52
2019-03-03T04:32:33.502Z,29.91
2019-03-03T04:33:33.455Z,29.81
2019-03-03T04:34:33.407Z,29.81
2019-03-03T04:35:33.361Z,29.72
2019-03-03T04:36:33.313Z,29.72
2019-03-03T04:37:33.266Z,29.72
2019-03-03T04:38:33.219Z,29.62
2019-03-03T04:39:33.175Z,29.81
2019-03-03T04:40:33.124Z,29.81
2019-03-03T04:41:33.076Z,29.72
2019-03-03T04:42:33.030Z,29.72
2019-03-03T04:43:32.983Z,29.72
2019-03-03T04:44:32.986Z,29.62
2019-03-03T04:45:32.888Z,29.62
2019-03-03T04:46:32.840Z,29.62
2019-03-03T04:47:32.793Z,29.62
2019-03-03T04:48:32.745Z,29.72
2019-03-03T04:49:32.698Z,29.62
2019-03-03T04:50:32.651Z,29.62
2019-03-03T04:51:32.605Z,29.91
2019-03-03T04:52:32.555Z,29.62
2019-03-03T04:53:32.508Z,29.62
2019-03-03T04:54:32.467Z,29.72
2019-03-03T04:55:32.415Z,30.10
2019-03-03T04:56:32.369Z,29.72
2019-03-03T04:57:32.319Z,29.72
2019-03-03T04:58:32.272Z,29.72
2019-03-03T04:59:32.224Z,29.72
2019-03-03T05:00:32.176Z,29.91
2019-03-03T05:01:32.129Z,29.81
2019-03-03T05:02:32.082Z,29.72
2019-03-03T05:03:32.035Z,29.72
2019-03-03T05:04:31.987Z,29.62
2019-03-03T05:05:31.990Z,29.72
2019-03-03T05:06:31.893Z,29.72
2019-03-03T05:07:31.845Z,29.72
2019-03-03T05:08:31.798Z,29.62
2019-03-03T05:09:31.752Z,29.62
2019-03-03T05:10:31.704Z,29.72
2019-03-03T05:11:31.657Z,29.81
2019-03-03T05:12:31.607Z,29.81
2019-03-03T05:13:31.567Z,29.72
2019-03-03T05:14:31.515Z,29.72
2019-03-03T05:15:31.471Z,29.91
2019-03-03T05:16:31.420Z,29.81
2019-03-03T05:17:31.415Z,29.91
2019-03-03T05:18:31.325Z,29.62
2019-03-03T05:19:31.277Z,29.62
2019-03-03T05:20:31.232Z,29.72
2019-03-03T05:21:31.183Z,29.72
2019-03-03T05:22:31.134Z,29.81
2019-03-03T05:23:31.091Z,29.72
2019-03-03T05:24:34.275Z,29.91
2019-03-03T05:25:30.993Z,30.00
2019-03-03T05:26:30.997Z,29.72
2019-03-03T05:27:30.899Z,29.91
2019-03-03T05:28:30.851Z,30.00
2019-03-03T05:29:30.804Z,29.91
2019-03-03T05:30:30.757Z,29.91
2019-03-03T05:31:30.710Z,29.91
2019-03-03T05:32:30.662Z,30.00
2019-03-03T05:33:30.615Z,30.00
2019-03-03T05:34:30.567Z,29.91
2019-03-03T05:35:30.520Z,29.91
2019-03-03T05:36:30.473Z,29.91
2019-03-03T05:37:30.425Z,29.81
2019-03-03T05:38:30.378Z,29.81
2019-03-03T05:39:30.331Z,29.81
2019-03-03T05:40:30.290Z,29.91
2019-03-03T05:41:30.236Z,29.81
2019-03-03T05:42:30.190Z,29.91
2019-03-03T05:43:30.142Z,29.91
2019-03-03T05:44:30.095Z,29.91
2019-03-03T05:45:30.048Z,29.91
2019-03-03T05:46:30.000Z,29.91
2019-03-03T05:47:30.053Z,30.00
2019-03-03T05:48:29.904Z,29.91
2019-03-03T05:49:29.857Z,29.91
2019-03-03T05:50:29.810Z,29.91
2019-03-03T05:51:29.763Z,29.81
2019-03-03T05:52:29.715Z,29.91
2019-03-03T05:53:29.668Z,29.91
2019-03-03T05:54:29.624Z,29.81
2019-03-03T05:55:29.574Z,29.72
2019-03-03T05:56:29.526Z,29.72
2019-03-03T05:57:29.478Z,29.91
2019-03-03T05:58:29.432Z,29.91
2019-03-03T05:59:29.389Z,29.91
2019-03-03T06:00:29.336Z,29.52
2019-03-03T06:01:29.390Z,29.72
2019-03-03T06:02:29.250Z,29.72
2019-03-03T06:03:29.195Z,29.72
2019-03-03T06:04:29.147Z,29.81
2019-03-03T06:05:29.100Z,29.81
2019-03-03T06:06:29.052Z,29.81
2019-03-03T06:07:29.056Z,29.81
2019-03-03T06:08:28.958Z,29.81
2019-03-03T06:09:28.911Z,29.91
2019-03-03T06:10:28.862Z,29.91
2019-03-03T06:11:28.820Z,29.81
2019-03-03T06:12:28.774Z,29.81
2019-03-03T06:13:28.721Z,29.72
2019-03-03T06:14:28.676Z,29.81
2019-03-03T06:15:28.627Z,29.81
2019-03-03T06:16:28.579Z,29.72
2019-03-03T06:17:28.532Z,29.81
2019-03-03T06:18:28.483Z,29.81
2019-03-03T06:19:28.440Z,29.81
2019-03-03T06:20:28.391Z,29.81
2019-03-03T06:21:28.342Z,29.81
2019-03-03T06:22:28.294Z,29.91
2019-03-03T06:23:28.248Z,29.81
2019-03-03T06:24:28.203Z,29.81
2019-03-03T06:25:28.154Z,29.81
2019-03-03T06:26:28.106Z,29.81
2019-03-03T06:27:28.060Z,29.62
2019-03-03T06:28:28.010Z,29.81
2019-03-03T06:29:27.963Z,29.91
2019-03-03T06:30:27.920Z,29.81
2019-03-03T06:31:27.869Z,29.81
2019-03-03T06:32:27.821Z,30.00
2019-03-03T06:33:27.774Z,29.81
2019-03-03T06:34:27.726Z,30.00
2019-03-03T06:35:27.680Z,30.10
2019-03-03T06:36:27.632Z,29.81
2019-03-03T06:37:27.587Z,29.81
2019-03-03T06:38:27.538Z,29.91
2019-03-03T06:39:27.491Z,29.81
2019-03-03T06:40:27.443Z,29.72
2019-03-03T06:41:27.396Z,30.00
2019-03-03T06:42:27.349Z,29.52
2019-03-03T06:43:27.301Z,29.62
2019-03-03T06:44:27.311Z,29.81
2019-03-03T06:45:27.206Z,29.81
2019-03-03T06:46:27.159Z,30.10
2019-03-03T06:47:27.112Z,29.81
2019-03-03T06:48:27.065Z,30.00
2019-03-03T06:49:27.017Z,29.81
2019-03-03T06:50:27.021Z,29.91
2019-03-03T06:51:26.923Z,30.19
2019-03-03T06:52:26.875Z,30.00
2019-03-03T06:53:26.828Z,30.00
2019-03-03T06:54:26.782Z,29.81
2019-03-03T06:55:26.734Z,30.10
2019-03-03T06:56:26.687Z,30.00
2019-03-03T06:57:26.638Z,29.62
2019-03-03T06:58:26.593Z,30.19
2019-03-03T06:59:26.544Z,30.00
2019-03-03T07:00:26.496Z,30.00
2019-03-03T07:01:27.317Z,29.91
2019-03-03T07:02:26.402Z,30.00
2019-03-03T07:03:26.356Z,29.91
2019-03-03T07:04:26.306Z,29.81
2019-03-03T07:05:26.260Z,30.00
2019-03-03T07:06:26.213Z,29.91
2019-03-03T07:07:26.172Z,30.10
2019-03-03T07:08:26.119Z,30.00
2019-03-03T07:09:26.070Z,29.81
2019-03-03T07:10:26.025Z,30.00
2019-03-03T07:11:25.977Z,29.91
2019-03-03T07:12:25.978Z,29.91
2019-03-03T07:13:25.881Z,29.91
2019-03-03T07:14:25.834Z,29.62
2019-03-03T07:15:25.787Z,30.00
2019-03-03T07:16:26.474Z,29.91
2019-03-03T07:17:25.692Z,30.00
2019-03-03T07:18:25.645Z,29.52
2019-03-03T07:19:25.599Z,29.52
2019-03-03T07:20:25.549Z,29.52
2019-03-03T07:21:25.506Z,29.52
2019-03-03T07:22:25.456Z,29.72
2019-03-03T07:23:25.408Z,29.72
2019-03-03T07:24:25.360Z,30.10
2019-03-03T07:25:25.313Z,30.10
2019-03-03T07:26:25.265Z,30.00
2019-03-03T07:27:25.219Z,30.10
2019-03-03T07:28:25.171Z,30.10
2019-03-03T07:29:25.124Z,30.10
2019-03-03T07:30:25.083Z,30.00
2019-03-03T07:31:25.029Z,30.10
2019-03-03T07:32:24.981Z,30.10
2019-03-03T07:33:25.057Z,30.11
2019-03-03T07:34:24.888Z,30.11
2019-03-03T07:35:24.842Z,30.00
2019-03-03T07:36:24.793Z,30.11
2019-03-03T07:37:24.745Z,29.81
2019-03-03T07:38:24.698Z,29.73
2019-03-03T07:39:24.701Z,29.73
2019-03-03T07:40:24.603Z,29.81
2019-03-03T07:41:24.556Z,29.73
2019-03-03T07:42:24.509Z,29.73
2019-03-03T07:43:24.462Z,29.93
2019-03-03T07:44:24.414Z,29.63
2019-03-03T07:45:24.367Z,29.73
2019-03-03T07:46:24.320Z,29.73
2019-03-03T07:47:24.273Z,29.73
2019-03-03T07:48:24.226Z,29.73
2019-03-03T07:49:24.178Z,29.73
2019-03-03T07:50:24.133Z,29.73
2019-03-03T07:51:24.088Z,29.63
2019-03-03T07:52:24.036Z,29.73
2019-03-03T07:53:23.998Z,29.83
2019-03-03T07:54:23.992Z,29.73
2019-03-03T07:55:23.895Z,29.73
2019-03-03T07:56:23.851Z,29.73
2019-03-03T07:57:23.800Z,29.83
2019-03-03T07:58:23.753Z,29.93
2019-03-03T07:59:23.707Z,29.73
2019-03-03T08:00:23.658Z,29.83
2019-03-03T08:01:23.610Z,29.93
2019-03-03T08:02:23.563Z,29.63
2019-03-03T08:03:23.517Z,29.73
2019-03-03T08:04:23.470Z,30.02
2019-03-03T08:05:23.422Z,29.83
2019-03-03T08:06:23.375Z,29.83
2019-03-03T08:07:23.327Z,30.21
2019-03-03T08:08:23.279Z,29.93
2019-03-03T08:09:23.233Z,30.21
2019-03-03T08:10:23.185Z,30.21
2019-03-03T08:11:23.140Z,30.21
2019-03-03T08:12:23.091Z,30.21
2019-03-03T08:13:23.044Z,30.21
2019-03-03T08:14:23.047Z,30.11
2019-03-03T08:15:22.951Z,30.02
2019-03-03T08:16:22.902Z,30.02
2019-03-03T08:17:22.854Z,29.83
2019-03-03T08:18:22.808Z,29.83
2019-03-03T08:19:22.761Z,30.21
2019-03-03T08:20:22.713Z,29.93
2019-03-03T08:21:22.667Z,30.11
2019-03-03T08:22:22.619Z,30.11
2019-03-03T08:23:22.572Z,30.11
2019-03-03T08:24:22.524Z,30.21
2019-03-03T08:25:22.477Z,30.02
2019-03-03T08:26:22.432Z,29.93
2019-03-03T08:27:22.383Z,30.02
2019-03-03T08:28:22.336Z,30.21
2019-03-03T08:29:22.288Z,30.02
2019-03-03T08:30:22.241Z,29.93
2019-03-03T08:31:22.195Z,30.11
2019-03-03T08:32:22.150Z,29.63
2019-03-03T08:33:22.100Z,29.54
2019-03-03T08:34:22.052Z,29.83
2019-03-03T08:35:22.006Z,29.83
2019-03-03T08:36:22.008Z,29.83
2019-03-03T08:37:21.961Z,29.73
2019-03-03T08:38:21.865Z,29.93
2019-03-03T08:39:21.816Z,30.11
2019-03-03T08:40:21.769Z,29.93
2019-03-03T08:41:21.722Z,30.11
2019-03-03T08:42:21.674Z,29.83
2019-03-03T08:43:21.628Z,29.93
2019-03-03T08:44:21.580Z,29.93
2019-03-03T08:45:21.534Z,29.83
2019-03-03T08:46:21.486Z,29.83
2019-03-03T08:47:21.439Z,29.83
2019-03-03T08:48:21.392Z,29.83
2019-03-03T08:49:21.345Z,29.83
2019-03-03T08:50:21.298Z,29.83
2019-03-03T08:51:21.252Z,29.83
2019-03-03T08:52:21.303Z,29.73
2019-03-03T08:53:21.156Z,30.02
2019-03-03T08:54:21.109Z,30.02
2019-03-03T08:55:21.062Z,29.93
2019-03-03T08:56:21.014Z,29.83
2019-03-03T08:57:20.967Z,29.83
2019-03-03T08:58:20.920Z,29.83
2019-03-03T08:59:20.874Z,29.93
2019-03-03T09:00:20.825Z,30.02
2019-03-03T09:01:20.781Z,29.93
2019-03-03T09:02:20.731Z,29.93
2019-03-03T09:03:20.685Z,29.93
2019-03-03T09:04:20.637Z,30.02
2019-03-03T09:05:20.590Z,29.93
2019-03-03T09:06:20.544Z,29.73
2019-03-03T09:07:20.496Z,29.83
2019-03-03T09:08:20.448Z,29.93
2019-03-03T09:09:20.401Z,29.93
2019-03-03T09:10:25.385Z,29.73
2019-03-03T09:11:20.307Z,29.73
2019-03-03T09:12:20.261Z,29.73
2019-03-03T09:13:20.212Z,29.63
2019-03-03T09:14:20.169Z,29.63
2019-03-03T09:15:20.120Z,29.73
2019-03-03T09:16:20.072Z,30.11
2019-03-03T09:17:20.024Z,29.83
2019-03-03T09:18:20.177Z,30.02
2019-03-03T09:19:19.931Z,29.73
2019-03-03T09:20:19.882Z,29.63
2019-03-03T09:21:19.835Z,29.83
2019-03-03T09:22:19.838Z,30.02
2019-03-03T09:23:19.742Z,29.93
2019-03-03T09:24:19.693Z,29.93
2019-03-03T09:25:19.647Z,29.93
2019-03-03T09:26:19.599Z,29.93
2019-03-03T09:27:19.557Z,29.93
2019-03-03T09:28:19.505Z,29.83
2019-03-03T09:29:19.463Z,29.83
2019-03-03T09:30:19.411Z,29.83
2019-03-03T09:31:19.366Z,29.83
2019-03-03T09:32:19.316Z,29.93
2019-03-03T09:33:19.273Z,29.83
2019-03-03T09:34:19.223Z,29.73
2019-03-03T09:35:19.177Z,29.73
2019-03-03T09:36:19.128Z,29.73
2019-03-03T09:37:19.130Z,29.73
2019-03-03T09:38:19.034Z,29.83
2019-03-03T09:39:18.987Z,29.93
2019-03-03T09:40:18.989Z,29.93
2019-03-03T09:41:18.893Z,29.83
2019-03-03T09:42:18.845Z,29.93
2019-03-03T09:43:18.798Z,29.83
2019-03-03T09:44:18.752Z,29.93
2019-03-03T09:45:18.707Z,29.73
2019-03-03T09:46:18.657Z,29.73
2019-03-03T09:47:18.610Z,29.63
2019-03-03T09:48:18.563Z,29.63
2019-03-03T09:49:18.516Z,29.83
2019-03-03T09:50:18.468Z,29.54
2019-03-03T09:51:18.424Z,29.93
2019-03-03T09:52:18.416Z,29.63
2019-03-03T09:53:18.327Z,29.46
2019-03-03T09:54:18.281Z,29.65
2019-03-03T09:55:18.236Z,29.94
2019-03-03T09:56:18.184Z,29.74
2019-03-03T09:57:18.142Z,29.73
2019-03-03T09:58:18.091Z,29.54
2019-03-03T09:59:18.044Z,29.46
2019-03-03T10:00:17.997Z,29.63
2019-03-03T10:01:17.950Z,29.74
2019-03-03T10:02:17.905Z,29.84
2019-03-03T10:03:17.856Z,29.83
2019-03-03T10:04:17.809Z,29.73
2019-03-03T10:05:17.761Z,29.44
2019-03-03T10:06:17.714Z,29.54
2019-03-03T10:07:17.667Z,29.54
2019-03-03T10:08:17.619Z,29.63
2019-03-03T10:09:17.572Z,29.54
2019-03-03T10:10:17.525Z,29.54
2019-03-03T10:11:17.479Z,29.44
2019-03-03T10:12:17.433Z,29.94
2019-03-03T10:13:17.384Z,29.74
2019-03-03T10:14:17.337Z,29.83
2019-03-03T10:15:17.293Z,29.44
2019-03-03T10:16:17.242Z,29.93
2019-03-03T10:17:17.196Z,29.74
2019-03-03T10:18:17.149Z,29.84
2019-03-03T10:19:17.103Z,29.84
2019-03-03T10:20:17.054Z,29.73
2019-03-03T10:21:17.007Z,29.83
2019-03-03T10:22:16.960Z,29.84
2019-03-03T10:23:16.914Z,29.84
2019-03-03T10:24:16.871Z,29.84
2019-03-03T10:25:16.820Z,29.83
2019-03-03T10:26:16.772Z,29.83
2019-03-03T10:27:16.728Z,29.74
2019-03-03T10:28:16.679Z,29.46
2019-03-03T10:29:16.631Z,29.54
2019-03-03T10:30:16.584Z,29.94
2019-03-03T10:31:16.537Z,29.73
2019-03-03T10:32:16.493Z,29.63
2019-03-03T10:33:16.442Z,29.46
2019-03-03T10:34:16.400Z,29.65
2019-03-03T10:35:16.348Z,29.83
2019-03-03T10:36:16.306Z,29.94
2019-03-03T10:37:16.256Z,29.63
2019-03-03T10:38:16.210Z,29.93
2019-03-03T10:39:16.161Z,29.54
2019-03-03T10:40:16.112Z,29.93
2019-03-03T10:41:16.066Z,29.93
2019-03-03T10:42:16.020Z,29.46
2019-03-03T10:43:15.973Z,29.44
2019-03-03T10:44:15.974Z,29.93
2019-03-03T10:45:15.878Z,29.54
2019-03-03T10:46:15.830Z,29.55
2019-03-03T10:47:15.785Z,29.63
2019-03-03T10:48:15.735Z,29.63
2019-03-03T10:49:15.689Z,29.46
2019-03-03T10:50:15.642Z,29.54
2019-03-03T10:51:15.595Z,29.74
2019-03-03T10:52:15.548Z,29.65
2019-03-03T10:53:15.502Z,29.55
2019-03-03T10:54:15.457Z,29.46
2019-03-03T10:55:15.406Z,29.94
2019-03-03T10:56:15.359Z,29.73
2019-03-03T10:57:15.314Z,29.74
2019-03-03T10:58:15.266Z,29.55
2019-03-03T10:59:15.220Z,29.74
2019-03-03T11:00:15.170Z,29.46
2019-03-03T11:01:15.125Z,29.46
2019-03-03T11:02:15.077Z,29.36
2019-03-03T11:03:15.029Z,29.36
2019-03-03T11:04:14.986Z,29.36
2019-03-03T11:05:14.987Z,29.36
2019-03-03T11:06:14.889Z,29.36
2019-03-03T11:07:14.842Z,29.17
2019-03-03T11:08:14.794Z,29.17
2019-03-03T11:09:14.748Z,28.88
2019-03-03T11:10:14.701Z,28.88
2019-03-03T11:11:14.654Z,28.88
2019-03-03T11:12:14.606Z,28.97
2019-03-03T11:13:14.558Z,28.88
2019-03-03T11:14:14.512Z,28.88
2019-03-03T11:15:18.463Z,28.88
2019-03-03T11:16:14.422Z,28.88
2019-03-03T11:17:14.373Z,28.97
2019-03-03T11:18:14.325Z,28.88
2019-03-03T11:19:14.282Z,28.97
2019-03-03T11:20:14.230Z,28.88
2019-03-03T11:21:14.182Z,28.97
2019-03-03T11:22:14.137Z,29.27
2019-03-03T11:23:14.089Z,28.78
2019-03-03T11:24:14.041Z,29.07
2019-03-03T11:25:13.996Z,29.36
2019-03-03T11:26:13.947Z,29.27
2019-03-03T11:27:13.901Z,29.36
2019-03-03T11:28:23.356Z,29.36
2019-03-03T11:29:13.812Z,29.46
2019-03-03T11:30:13.762Z,29.36
2019-03-03T11:31:13.716Z,29.36
2019-03-03T11:32:13.666Z,29.46
2019-03-03T11:33:13.622Z,29.55
2019-03-03T11:34:13.573Z,29.36
2019-03-03T11:35:13.525Z,29.36
2019-03-03T11:36:13.477Z,29.46
2019-03-03T11:37:14.201Z,29.27
2019-03-03T11:38:13.385Z,29.36
2019-03-03T11:39:13.346Z,29.46
2019-03-03T11:40:13.289Z,29.55
2019-03-03T11:41:13.243Z,29.55
2019-03-03T11:42:13.196Z,29.55
2019-03-03T11:43:13.149Z,29.46
2019-03-03T11:44:13.102Z,29.65
2019-03-03T11:45:13.055Z,29.46
2019-03-03T11:46:13.063Z,29.74
2019-03-03T11:47:12.961Z,29.74
2019-03-03T11:48:12.915Z,29.55
2019-03-03T11:49:12.867Z,29.65
2019-03-03T11:50:12.820Z,29.84
2019-03-03T11:51:12.773Z,29.65
2019-03-03T11:52:12.725Z,29.65
2019-03-03T11:53:12.678Z,29.74
2019-03-03T11:54:12.631Z,29.84
2019-03-03T11:55:12.586Z,29.84
2019-03-03T11:56:12.538Z,29.74
2019-03-03T11:57:12.492Z,29.44
2019-03-03T11:58:12.443Z,29.46
2019-03-03T11:59:12.397Z,29.65
2019-03-03T12:00:12.357Z,29.74
2019-03-03T12:01:12.303Z,29.74
2019-03-03T12:02:12.254Z,29.83
2019-03-03T12:03:12.601Z,29.84
2019-03-03T12:04:12.160Z,29.94
2019-03-03T12:05:12.114Z,29.94
2019-03-03T12:06:12.067Z,29.84
2019-03-03T12:07:12.022Z,29.94
2019-03-03T12:08:11.973Z,29.84
2019-03-03T12:09:11.928Z,29.94
2019-03-03T12:10:11.885Z,29.74
2019-03-03T12:11:11.886Z,29.84
2019-03-03T12:12:11.794Z,29.84
2019-03-03T12:13:11.738Z,29.73
2019-03-03T12:14:11.691Z,30.11
2019-03-03T12:15:11.645Z,29.73
2019-03-03T12:16:11.597Z,29.94
2019-03-03T12:17:11.550Z,29.94
2019-03-03T12:18:11.506Z,29.93
2019-03-03T12:19:11.464Z,29.93
2019-03-03T12:20:11.408Z,29.93
2019-03-03T12:21:11.362Z,30.02
2019-03-03T12:22:11.318Z,30.04
2019-03-03T12:23:11.269Z,29.94
2019-03-03T12:24:11.219Z,29.55
2019-03-03T12:25:11.173Z,30.04
2019-03-03T12:26:11.130Z,29.65
2019-03-03T12:27:11.080Z,29.73
2019-03-03T12:28:11.033Z,29.94
2019-03-03T12:29:11.721Z,29.74
2019-03-03T12:30:10.942Z,29.84
2019-03-03T12:31:10.892Z,29.84
2019-03-03T12:32:10.846Z,29.84
2019-03-03T12:33:10.798Z,29.84
2019-03-03T12:34:10.750Z,29.84
2019-03-03T12:35:10.704Z,29.94
2019-03-03T12:36:10.705Z,29.74
2019-03-03T12:37:10.610Z,29.84
2019-03-03T12:38:10.564Z,29.65
2019-03-03T12:39:10.516Z,29.94
2019-03-03T12:40:10.468Z,29.55
2019-03-03T12:41:10.421Z,29.55
2019-03-03T12:42:10.377Z,29.65
2019-03-03T12:43:10.328Z,29.74
2019-03-03T12:44:10.280Z,29.74
2019-03-03T12:45:10.233Z,29.65
2019-03-03T12:46:10.186Z,29.74
2019-03-03T12:47:10.140Z,29.55
2019-03-03T12:48:10.093Z,29.55
2019-03-03T12:49:10.048Z,29.94
2019-03-03T12:50:09.999Z,29.74
2019-03-03T12:51:09.951Z,29.74
2019-03-03T12:52:09.905Z,29.74